Terminal Aerodrome Forecast
Issued by NWS

Home | Current Version | Previous Version | Text Only | Print | Product List | Glossary On
Versions: 1 2 3 4 5 6 7 8 9 10 11 12 13 14 15 16 17 18
000
FTUS41 KBGM 201100
TAFRME
TAF
KRME 201125Z 2012/2112 10010KT P6SM OVC025
     FM201600 17012G22KT P6SM BKN040
     FM202200 18010KT P6SM SCT050
     FM210300 12012KT P6SM SCT250
      TEMPO 2109/2112 OVC025=

USA.gov is the U.S. government's official web portal to all federal, state and local government web resources and services.